createdAt,value
2023-01-07T00:01:38.512Z,24.80
2023-01-07T00:04:07.717Z,25.98
2023-01-07T00:09:05.493Z,23.63
2023-01-07T00:11:38.260Z,24.90
2023-01-07T00:14:07.753Z,24.38
2023-01-07T00:16:36.300Z,21.98
2023-01-07T00:19:04.749Z,24.05
2023-01-07T00:21:32.595Z,22.40
2023-01-07T00:24:02.953Z,19.95
2023-01-07T00:26:31.509Z,24.33
2023-01-07T00:29:00.745Z,22.43
2023-01-07T00:31:31.097Z,23.48
2023-01-07T00:33:59.541Z,23.33
2023-01-07T00:36:31.971Z,20.48
2023-01-07T00:39:05.240Z,23.08
2023-01-07T00:41:33.875Z,20.08
2023-01-07T00:44:01.891Z,19.95
2023-01-07T00:46:30.177Z,24.65
2023-01-07T00:48:58.795Z,24.02
2023-01-07T00:51:26.751Z,20.70
2023-01-07T00:53:55.494Z,23.70
2023-01-07T00:56:23.742Z,18.98
2023-01-07T00:58:52.500Z,21.80
2023-01-07T01:01:21.407Z,19.35
2023-01-07T01:03:50.514Z,21.50
2023-01-07T01:06:18.833Z,20.20
2023-01-07T01:08:47.965Z,19.40
2023-01-07T01:11:17.391Z,19.02
2023-01-07T01:13:47.156Z,17.05
2023-01-07T01:16:18.013Z,17.98
2023-01-07T01:18:47.277Z,19.63
2023-01-07T01:21:17.385Z,23.35
2023-01-07T01:23:46.433Z,18.08
2023-01-07T01:26:16.727Z,19.08
2023-01-07T01:28:46.097Z,18.48
2023-01-07T01:31:20.571Z,16.27
2023-01-07T01:33:55.554Z,18.80
2023-01-07T01:36:25.688Z,20.20
2023-01-07T01:38:58.075Z,20.08
2023-01-07T01:41:29.379Z,17.23
2023-01-07T01:44:01.455Z,19.48
2023-01-07T01:46:36.756Z,18.17
2023-01-07T01:49:16.550Z,18.67
2023-01-07T01:51:48.241Z,17.33
2023-01-07T01:54:20.072Z,17.65
2023-01-07T01:56:55.006Z,16.20
2023-01-07T01:59:25.274Z,19.45
2023-01-07T02:01:56.639Z,19.60
2023-01-07T02:04:27.374Z,16.65
2023-01-07T02:07:07.910Z,17.38
2023-01-07T02:09:38.952Z,17.95
2023-01-07T02:12:28.510Z,18.52
2023-01-07T02:15:15.219Z,19.17
2023-01-07T02:17:43.759Z,18.88
2023-01-07T02:20:19.066Z,21.63
2023-01-07T02:22:50.638Z,22.80
2023-01-07T02:25:34.064Z,20.38
2023-01-07T02:28:21.830Z,17.67
2023-01-07T02:31:08.879Z,23.73
2023-01-07T02:33:51.925Z,18.95
2023-01-07T02:36:23.409Z,20.75
2023-01-07T02:38:51.891Z,19.77
2023-01-07T02:41:39.609Z,22.05
2023-01-07T02:44:13.756Z,21.52
2023-01-07T02:46:45.297Z,20.92
2023-01-07T02:49:15.584Z,19.60
2023-01-07T02:51:43.708Z,21.75
2023-01-07T02:54:14.453Z,24.75
2023-01-07T02:56:54.125Z,26.35
2023-01-07T03:02:15.264Z,33.60
2023-01-07T03:05:08.553Z,23.55
2023-01-07T03:07:48.082Z,22.33
2023-01-07T03:10:35.558Z,24.20
2023-01-07T03:13:07.428Z,23.20
2023-01-07T03:15:43.852Z,27.55
2023-01-07T03:18:17.852Z,28.42
2023-01-07T03:20:46.472Z,22.30
2023-01-07T03:23:14.747Z,22.58
2023-01-07T03:25:45.267Z,22.50
2023-01-07T03:28:15.118Z,20.77
2023-01-07T03:30:42.858Z,18.40
2023-01-07T03:33:18.793Z,19.35
2023-01-07T03:35:48.488Z,18.15
2023-01-07T03:38:17.564Z,22.48
2023-01-07T03:40:45.058Z,22.27
2023-01-07T03:43:16.486Z,23.13
2023-01-07T03:45:44.579Z,24.10
2023-01-07T03:48:11.797Z,21.90
2023-01-07T03:50:39.409Z,20.30
2023-01-07T03:53:07.689Z,21.60
2023-01-07T03:55:37.158Z,21.67
2023-01-07T03:58:04.567Z,17.33
2023-01-07T04:00:32.380Z,19.30
2023-01-07T04:03:09.016Z,26.65
2023-01-07T04:05:40.697Z,19.98
2023-01-07T04:08:08.762Z,20.05
2023-01-07T04:10:38.869Z,21.90
2023-01-07T04:13:06.314Z,19.00
2023-01-07T04:15:33.769Z,20.05
2023-01-07T04:18:01.057Z,20.48
2023-01-07T04:20:29.339Z,16.70
2023-01-07T04:22:56.884Z,17.08
2023-01-07T04:25:24.151Z,21.95
2023-01-07T04:27:51.527Z,23.73
2023-01-07T04:30:18.839Z,21.23
2023-01-07T04:32:46.303Z,19.65
2023-01-07T04:35:13.552Z,18.55
2023-01-07T04:37:40.865Z,20.55
2023-01-07T04:40:08.592Z,20.73
2023-01-07T04:42:37.569Z,20.55
2023-01-07T04:45:07.872Z,21.30
2023-01-07T04:47:35.475Z,22.27
2023-01-07T04:50:03.415Z,20.83
2023-01-07T04:52:33.201Z,20.92
2023-01-07T04:55:00.426Z,21.95
2023-01-07T04:57:28.273Z,23.15
2023-01-07T04:59:55.581Z,20.30
2023-01-07T05:02:23.151Z,22.75
2023-01-07T05:04:50.671Z,19.98
2023-01-07T05:07:19.351Z,19.55
2023-01-07T05:09:46.649Z,23.35
2023-01-07T05:12:13.981Z,22.85
2023-01-07T05:14:42.932Z,21.85
2023-01-07T05:17:10.331Z,20.45
2023-01-07T05:19:38.838Z,23.23
2023-01-07T05:22:06.443Z,23.00
2023-01-07T05:24:38.441Z,22.98
2023-01-07T05:27:06.005Z,23.33
2023-01-07T05:29:35.611Z,23.55
2023-01-07T05:32:02.928Z,31.45
2023-01-07T05:34:30.760Z,24.33
2023-01-07T05:36:58.628Z,22.48
2023-01-07T05:39:26.556Z,24.80
2023-01-07T05:41:54.636Z,22.38
2023-01-07T05:44:24.483Z,21.33
2023-01-07T05:46:51.710Z,21.77
2023-01-07T05:49:19.015Z,23.63
2023-01-07T05:51:46.221Z,19.13
2023-01-07T05:54:13.507Z,20.10
2023-01-07T05:56:40.832Z,24.67
2023-01-07T05:59:08.203Z,21.45
2023-01-07T06:01:36.037Z,25.35
2023-01-07T06:04:04.262Z,23.60
2023-01-07T06:06:33.512Z,17.65
2023-01-07T06:09:02.978Z,20.35
2023-01-07T06:11:31.767Z,20.88
2023-01-07T06:14:00.574Z,18.13
2023-01-07T06:16:29.201Z,18.45
2023-01-07T06:18:58.130Z,18.43
2023-01-07T06:21:26.308Z,17.40
2023-01-07T06:23:54.782Z,18.98
2023-01-07T06:26:23.175Z,19.83
2023-01-07T06:28:53.061Z,19.63
2023-01-07T06:31:21.682Z,13.07
2023-01-07T06:33:49.989Z,14.45
2023-01-07T06:36:18.807Z,17.83
2023-01-07T06:38:46.931Z,15.18
2023-01-07T06:41:18.572Z,14.70
2023-01-07T06:43:47.477Z,17.35
2023-01-07T06:46:16.382Z,13.75
2023-01-07T06:48:45.328Z,15.95
2023-01-07T06:51:13.639Z,13.90
2023-01-07T06:53:41.975Z,13.20
2023-01-07T06:56:10.804Z,12.65
2023-01-07T06:58:39.273Z,13.82
2023-01-07T07:01:11.436Z,13.50
2023-01-07T07:03:40.767Z,12.75
2023-01-07T07:06:09.539Z,13.20
2023-01-07T07:08:40.886Z,13.82
2023-01-07T07:11:09.533Z,11.20
2023-01-07T07:13:38.156Z,11.68
2023-01-07T07:16:07.017Z,14.25
2023-01-07T07:18:36.222Z,12.23
2023-01-07T07:23:33.829Z,12.52
2023-01-07T07:26:04.821Z,12.25
2023-01-07T07:28:32.128Z,10.38
2023-01-07T07:30:59.384Z,13.18
2023-01-07T07:33:26.600Z,12.90
2023-01-07T07:35:55.062Z,10.05
2023-01-07T07:38:22.643Z,12.87
2023-01-07T07:40:49.886Z,8.68
2023-01-07T07:43:17.188Z,10.23
2023-01-07T07:45:44.958Z,10.60
2023-01-07T07:48:16.392Z,11.93
2023-01-07T07:50:43.881Z,10.75
2023-01-07T07:53:11.944Z,11.15
2023-01-07T07:55:40.153Z,8.13
2023-01-07T07:58:08.524Z,7.28
2023-01-07T08:00:37.241Z,8.30
2023-01-07T08:03:05.893Z,8.13
2023-01-07T08:05:35.715Z,7.95
2023-01-07T08:08:04.856Z,8.20
2023-01-07T08:10:40.119Z,7.07
2023-01-07T08:15:54.136Z,5.43
2023-01-07T08:18:24.486Z,5.78
2023-01-07T08:20:52.929Z,5.05
2023-01-07T08:23:21.629Z,5.20
2023-01-07T08:25:50.722Z,5.40
2023-01-07T08:28:19.396Z,5.88
2023-01-07T08:30:48.650Z,7.05
2023-01-07T08:33:16.944Z,8.18
2023-01-07T08:38:31.812Z,4.40
2023-01-07T08:41:01.233Z,5.22
2023-01-07T08:43:31.480Z,6.72
2023-01-07T08:46:00.613Z,5.35
2023-01-07T08:48:30.148Z,4.97
2023-01-07T08:50:59.780Z,5.65
2023-01-07T08:53:31.731Z,4.93
2023-01-07T08:56:04.861Z,5.43
2023-01-07T08:58:38.978Z,5.18
2023-01-07T09:01:08.438Z,13.70
2023-01-07T09:03:43.555Z,6.25
2023-01-07T09:06:13.022Z,6.25
2023-01-07T09:08:41.342Z,4.72
2023-01-07T09:11:12.435Z,5.30
2023-01-07T09:13:46.340Z,5.50
2023-01-07T09:16:19.295Z,6.30
2023-01-07T09:18:48.007Z,4.78
2023-01-07T09:21:16.421Z,4.17
2023-01-07T09:23:44.859Z,5.18
2023-01-07T09:26:12.707Z,3.83
2023-01-07T09:28:40.773Z,5.88
2023-01-07T09:31:08.127Z,4.38
2023-01-07T09:33:35.585Z,3.45
2023-01-07T09:36:02.850Z,4.93
2023-01-07T09:38:30.400Z,3.15
2023-01-07T09:40:57.832Z,12.27
2023-01-07T09:44:00.890Z,4.35
2023-01-07T09:46:19.086Z,4.57
2023-01-07T09:51:18.518Z,3.67
2023-01-07T09:53:53.739Z,3.75
2023-01-07T09:56:29.004Z,6.88
2023-01-07T09:58:57.522Z,4.68
2023-01-07T10:01:31.064Z,4.95
2023-01-07T10:04:04.483Z,8.00
2023-01-07T10:06:56.549Z,3.85
2023-01-07T10:09:23.893Z,4.40
2023-01-07T10:12:09.978Z,3.38
2023-01-07T10:14:46.556Z,6.05
2023-01-07T10:17:14.366Z,4.22
2023-01-07T10:19:42.155Z,5.50
2023-01-07T10:22:36.172Z,4.88
2023-01-07T10:25:12.610Z,3.92
2023-01-07T10:27:42.536Z,5.43
2023-01-07T10:30:19.238Z,2.70
2023-01-07T10:32:47.387Z,3.42
2023-01-07T10:35:17.463Z,6.55
2023-01-07T10:37:44.856Z,3.60
2023-01-07T10:40:30.728Z,5.65
2023-01-07T10:43:04.125Z,4.07
2023-01-07T10:45:31.477Z,2.85
2023-01-07T10:48:04.911Z,2.28
2023-01-07T10:50:50.701Z,2.85
2023-01-07T10:53:24.964Z,2.83
2023-01-07T10:56:01.604Z,3.88
2023-01-07T10:58:33.384Z,4.70
2023-01-07T11:01:00.844Z,4.35
2023-01-07T11:03:28.416Z,2.75
2023-01-07T11:05:58.600Z,1.98
2023-01-07T11:08:26.162Z,3.10
2023-01-07T11:10:53.583Z,3.30
2023-01-07T11:13:23.346Z,2.88
2023-01-07T11:16:08.140Z,3.08
2023-01-07T11:18:39.560Z,1.88
2023-01-07T11:21:06.891Z,7.03
2023-01-07T11:23:43.759Z,2.80
2023-01-07T11:26:11.294Z,3.00
2023-01-07T11:28:41.338Z,3.35
2023-01-07T11:31:08.700Z,4.55
2023-01-07T11:34:03.865Z,2.33
2023-01-07T11:36:39.274Z,2.10
2023-01-07T11:39:19.698Z,1.95
2023-01-07T11:41:54.589Z,3.38
2023-01-07T11:44:22.137Z,3.30
2023-01-07T11:46:49.838Z,2.78
2023-01-07T11:49:40.102Z,2.03
2023-01-07T11:52:07.443Z,2.92
2023-01-07T11:54:34.720Z,2.90
2023-01-07T11:57:18.769Z,3.08
2023-01-07T11:59:46.102Z,3.00
2023-01-07T12:02:27.211Z,3.72
2023-01-07T12:05:14.563Z,2.97
2023-01-07T12:07:45.654Z,2.47
2023-01-07T12:10:31.924Z,5.93
2023-01-07T12:13:00.320Z,3.00
2023-01-07T12:15:39.790Z,2.07
2023-01-07T12:18:18.913Z,2.72
2023-01-07T12:21:10.405Z,4.95
2023-01-07T12:23:48.953Z,2.78
2023-01-07T12:26:19.979Z,2.83
2023-01-07T12:28:47.235Z,3.28
2023-01-07T12:31:44.187Z,3.35
2023-01-07T12:34:18.495Z,3.13
2023-01-07T12:37:04.769Z,2.25
2023-01-07T12:39:35.198Z,3.75
2023-01-07T12:45:02.642Z,4.72
2023-01-07T12:47:35.329Z,4.22
2023-01-07T12:50:02.979Z,2.40
2023-01-07T12:52:52.344Z,3.28
2023-01-07T12:58:11.856Z,2.78
2023-01-07T13:01:03.511Z,2.58
2023-01-07T13:03:50.467Z,4.07
2023-01-07T13:06:27.215Z,3.20
2023-01-07T13:08:58.471Z,2.45
2023-01-07T13:11:50.419Z,2.50
2023-01-07T13:14:24.093Z,2.80
2023-01-07T13:16:51.526Z,3.25
2023-01-07T13:19:18.879Z,2.60
2023-01-07T13:21:48.064Z,2.78
2023-01-07T13:24:15.535Z,2.78
2023-01-07T13:26:49.588Z,4.97
2023-01-07T13:29:24.148Z,3.40
2023-01-07T13:32:10.359Z,3.45
2023-01-07T13:34:42.750Z,3.45
2023-01-07T13:37:22.285Z,2.65
2023-01-07T13:40:04.771Z,5.78
2023-01-07T13:42:38.059Z,2.15
2023-01-07T13:45:25.950Z,3.97
2023-01-07T13:47:54.886Z,3.67
2023-01-07T13:50:24.493Z,3.95
2023-01-07T13:52:59.741Z,3.40
2023-01-07T13:55:34.957Z,3.70
2023-01-07T13:58:03.027Z,4.72
2023-01-07T14:00:39.585Z,5.68
2023-01-07T14:03:27.849Z,4.07
2023-01-07T14:06:19.213Z,4.50
2023-01-07T14:08:53.012Z,3.83
2023-01-07T14:11:21.642Z,4.72
2023-01-07T14:13:51.987Z,3.70
2023-01-07T14:16:19.403Z,4.93
2023-01-07T14:19:05.648Z,3.65
2023-01-07T14:21:45.413Z,2.85
2023-01-07T14:24:24.718Z,3.38
2023-01-07T14:29:39.349Z,3.65
2023-01-07T14:32:32.940Z,2.80
2023-01-07T14:35:02.705Z,4.80
2023-01-07T14:37:38.259Z,3.95
2023-01-07T14:40:24.762Z,3.17
2023-01-07T14:42:52.705Z,3.92
2023-01-07T14:45:39.194Z,3.30
2023-01-07T14:48:10.218Z,4.85
2023-01-07T14:50:49.770Z,3.00
2023-01-07T14:53:17.414Z,3.35
2023-01-07T14:56:11.762Z,4.18
2023-01-07T14:58:45.613Z,4.15
2023-01-07T15:01:26.115Z,4.30
2023-01-07T15:03:56.069Z,4.10
2023-01-07T15:06:24.778Z,3.63
2023-01-07T15:09:14.378Z,3.55
2023-01-07T15:12:01.758Z,3.85
2023-01-07T15:14:57.165Z,3.80
2023-01-07T15:17:25.207Z,3.30
2023-01-07T15:19:54.439Z,5.03
2023-01-07T15:24:49.709Z,5.18
2023-01-07T15:27:16.979Z,3.33
2023-01-07T15:29:47.441Z,3.40
2023-01-07T15:32:17.789Z,4.43
2023-01-07T15:34:45.786Z,4.63
2023-01-07T15:37:13.896Z,4.00
2023-01-07T15:39:47.039Z,3.75
2023-01-07T15:42:19.553Z,4.18
2023-01-07T15:44:50.816Z,5.25
2023-01-07T15:47:31.631Z,4.43
2023-01-07T15:50:17.784Z,4.47
2023-01-07T15:52:53.566Z,3.33
2023-01-07T15:55:25.343Z,4.80
2023-01-07T15:57:54.060Z,4.65
2023-01-07T16:00:21.793Z,5.18
2023-01-07T16:02:49.178Z,5.75
2023-01-07T16:05:18.553Z,4.10
2023-01-07T16:10:19.937Z,5.07
2023-01-07T16:12:49.763Z,6.15
2023-01-07T16:15:26.232Z,4.93
2023-01-07T16:17:57.995Z,3.65
2023-01-07T16:20:36.264Z,4.40
2023-01-07T16:23:13.207Z,5.53
2023-01-07T16:25:51.518Z,7.95
2023-01-07T16:28:20.632Z,5.00
2023-01-07T16:30:48.799Z,4.07
2023-01-07T16:33:17.711Z,4.45
2023-01-07T16:35:46.202Z,4.97
2023-01-07T16:38:14.331Z,6.05
2023-01-07T16:40:42.208Z,5.25
2023-01-07T16:43:27.919Z,8.68
2023-01-07T16:46:09.275Z,14.48
2023-01-07T16:48:36.559Z,8.02
2023-01-07T16:51:03.841Z,6.43
2023-01-07T16:53:33.480Z,7.75
2023-01-07T16:56:17.561Z,6.18
2023-01-07T16:58:49.474Z,5.82
2023-01-07T17:01:43.166Z,7.70
2023-01-07T17:04:16.797Z,5.32
2023-01-07T17:06:44.404Z,4.47
2023-01-07T17:09:33.101Z,4.80
2023-01-07T17:12:00.487Z,4.35
2023-01-07T17:14:33.885Z,5.55
2023-01-07T17:17:19.466Z,7.00
2023-01-07T17:19:48.469Z,5.07
2023-01-07T17:22:29.914Z,6.93
2023-01-07T17:25:15.750Z,5.28
2023-01-07T17:27:49.869Z,5.38
2023-01-07T17:30:18.936Z,9.88
2023-01-07T17:32:47.499Z,6.80
2023-01-07T17:35:18.941Z,5.05
2023-01-07T17:37:46.235Z,8.38
2023-01-07T17:40:14.363Z,6.82
2023-01-07T17:43:00.796Z,5.85
2023-01-07T17:45:29.388Z,8.23
2023-01-07T17:47:57.428Z,10.73
2023-01-07T17:50:24.693Z,9.02
2023-01-07T17:52:53.584Z,6.53
2023-01-07T17:55:29.122Z,6.38
2023-01-07T17:57:56.463Z,6.35
2023-01-07T18:00:24.785Z,7.78
2023-01-07T18:02:52.467Z,7.67
2023-01-07T18:05:24.076Z,7.03
2023-01-07T18:07:52.184Z,7.80
2023-01-07T18:10:20.878Z,8.93
2023-01-07T18:12:48.492Z,11.00
2023-01-07T18:15:20.323Z,6.15
2023-01-07T18:17:48.363Z,7.70
2023-01-07T18:20:17.707Z,9.40
2023-01-07T18:22:45.288Z,8.90
2023-01-07T18:25:20.483Z,7.95
2023-01-07T18:27:49.144Z,7.32
2023-01-07T18:30:17.933Z,7.75
2023-01-07T18:32:45.824Z,6.88
2023-01-07T18:35:14.170Z,7.10
2023-01-07T18:37:42.736Z,5.88
2023-01-07T18:40:10.716Z,6.78
2023-01-07T18:42:38.170Z,8.60
2023-01-07T18:45:06.251Z,7.20
2023-01-07T18:47:33.640Z,7.90
2023-01-07T18:50:00.964Z,6.40
2023-01-07T18:52:29.142Z,6.82
2023-01-07T18:54:56.380Z,9.18
2023-01-07T18:57:23.915Z,6.50
2023-01-07T18:59:51.457Z,8.15
2023-01-07T19:02:19.926Z,6.22
2023-01-07T19:04:48.001Z,6.97
2023-01-07T19:07:16.040Z,5.82
2023-01-07T19:09:43.600Z,7.18
2023-01-07T19:12:12.218Z,5.95
2023-01-07T19:14:40.115Z,6.97
2023-01-07T19:17:08.202Z,7.55
2023-01-07T19:19:47.470Z,5.82
2023-01-07T19:22:16.389Z,7.28
2023-01-07T19:24:44.262Z,8.65
2023-01-07T19:27:11.910Z,8.55
2023-01-07T19:29:39.240Z,6.35
2023-01-07T19:32:06.548Z,8.30
2023-01-07T19:34:33.910Z,6.15
2023-01-07T19:37:01.338Z,7.32
2023-01-07T19:39:28.745Z,9.98
2023-01-07T19:41:57.266Z,6.80
2023-01-07T19:44:24.982Z,6.03
2023-01-07T19:46:52.569Z,7.07
2023-01-07T19:49:20.002Z,7.75
2023-01-07T19:51:50.042Z,7.93
2023-01-07T19:54:40.342Z,7.57
2023-01-07T19:57:18.754Z,7.57
2023-01-07T20:00:00.350Z,5.78
2023-01-07T20:02:51.091Z,9.15
2023-01-07T20:05:18.650Z,9.73
2023-01-07T20:07:46.189Z,6.85
2023-01-07T20:10:24.789Z,6.72
2023-01-07T20:12:57.687Z,6.28
2023-01-07T20:15:30.469Z,7.53
2023-01-07T20:17:59.275Z,10.13
2023-01-07T20:20:28.020Z,7.30
2023-01-07T20:22:57.712Z,9.15
2023-01-07T20:25:26.603Z,8.40
2023-01-07T20:27:54.401Z,10.02
2023-01-07T20:30:21.707Z,6.38
2023-01-07T20:32:49.550Z,7.30
2023-01-07T20:35:16.933Z,10.15
2023-01-07T20:37:44.276Z,7.28
2023-01-07T20:40:13.131Z,10.68
2023-01-07T20:45:10.857Z,8.40
2023-01-07T20:47:38.480Z,8.50
2023-01-07T20:50:06.489Z,7.90
2023-01-07T20:52:33.761Z,14.95
2023-01-07T20:55:02.474Z,16.95
2023-01-07T20:57:32.120Z,13.35
2023-01-07T20:59:59.871Z,9.52
2023-01-07T21:02:31.285Z,9.18
2023-01-07T21:04:59.476Z,8.68
2023-01-07T21:07:27.999Z,11.05
2023-01-07T21:09:55.605Z,9.13
2023-01-07T21:12:22.895Z,9.48
2023-01-07T21:14:50.140Z,8.73
2023-01-07T21:17:17.439Z,10.77
2023-01-07T21:19:44.732Z,8.68
2023-01-07T21:22:12.137Z,11.85
2023-01-07T21:24:39.636Z,11.13
2023-01-07T21:27:07.014Z,8.60
2023-01-07T21:29:34.241Z,7.45
2023-01-07T21:32:04.113Z,8.88
2023-01-07T21:34:31.460Z,9.32
2023-01-07T21:36:58.703Z,7.93
2023-01-07T21:39:26.067Z,8.15
2023-01-07T21:41:53.382Z,7.10
2023-01-07T21:44:20.627Z,8.10
2023-01-07T21:46:47.925Z,9.68
2023-01-07T21:49:15.235Z,9.40
2023-01-07T21:51:42.442Z,9.10
2023-01-07T21:54:09.683Z,10.00
2023-01-07T21:56:37.142Z,10.20
2023-01-07T21:59:04.419Z,7.45
2023-01-07T22:01:31.876Z,11.75
2023-01-07T22:04:00.019Z,13.18
2023-01-07T22:06:32.063Z,8.88
2023-01-07T22:09:00.894Z,7.75
2023-01-07T22:11:28.627Z,7.35
2023-01-07T22:13:58.330Z,11.48
2023-01-07T22:16:28.330Z,8.52
2023-01-07T22:18:57.705Z,9.57
2023-01-07T22:21:25.635Z,7.70
2023-01-07T22:23:53.607Z,10.43
2023-01-07T22:26:22.454Z,8.27
2023-01-07T22:28:52.405Z,10.43
2023-01-07T22:31:23.503Z,8.95
2023-01-07T22:33:52.003Z,8.52
2023-01-07T22:36:22.398Z,10.65
2023-01-07T22:38:50.567Z,8.98
2023-01-07T22:41:18.926Z,10.02
2023-01-07T22:43:46.442Z,9.23
2023-01-07T22:46:21.991Z,8.20
2023-01-07T22:48:50.432Z,9.52
2023-01-07T22:51:20.114Z,10.05
2023-01-07T22:53:52.005Z,7.43
2023-01-07T22:56:19.589Z,8.27
2023-01-07T22:58:47.013Z,8.10
2023-01-07T23:01:15.591Z,8.20
2023-01-07T23:03:43.682Z,6.07
2023-01-07T23:06:12.891Z,7.10
2023-01-07T23:08:40.379Z,7.20
2023-01-07T23:11:07.946Z,6.22
2023-01-07T23:13:35.566Z,4.18
2023-01-07T23:16:03.525Z,8.32
2023-01-07T23:18:30.889Z,6.22
2023-01-07T23:20:59.266Z,8.93
2023-01-07T23:23:27.798Z,6.40
2023-01-07T23:25:56.480Z,8.88
2023-01-07T23:28:24.275Z,7.95
2023-01-07T23:30:51.635Z,7.93
2023-01-07T23:33:18.917Z,7.90
2023-01-07T23:35:46.301Z,8.00
2023-01-07T23:38:13.616Z,6.93
2023-01-07T23:40:40.965Z,9.70
2023-01-07T23:43:08.274Z,6.90
2023-01-07T23:45:35.577Z,8.10
2023-01-07T23:48:02.890Z,7.57
2023-01-07T23:50:30.146Z,7.97
2023-01-07T23:52:57.352Z,7.60
2023-01-07T23:55:24.608Z,10.73
2023-01-07T23:57:51.806Z,8.32
